Time,TemperatureF,DewpointF,PressureIn,WindDirection,WindDirectionDegrees,WindSpeedMPH,WindSpeedGustMPH,Humidity,HourlyPrecipIn,Conditions,Clouds,dailyrainin,SoftwareType,DateUTC
2014-01-25 00:22:00,18.0,18.0,-100.00,SW,215,21.0,30.0,98,-99.99,,,-99.99,,2014-01-25 05:22:00,
2014-01-25 00:52:00,18.0,18.0,-100.00,SSW,205,23.0,31.0,99,-99.99,,,-99.99,,2014-01-25 05:52:00,
2014-01-25 01:22:00,19.0,19.0,-100.00,SSW,210,22.0,29.0,99,-99.99,,,-99.99,,2014-01-25 06:22:00,
2014-01-25 01:53:00,19.0,19.0,-100.00,SSW,205,23.0,35.0,99,-99.99,,,-99.99,,2014-01-25 06:53:00,
2014-01-25 02:21:00,19.0,19.0,-100.00,SSW,210,19.0,30.0,99,-99.99,,,-99.99,,2014-01-25 07:21:00,
2014-01-25 02:52:00,19.0,19.0,-100.00,SSW,205,21.0,30.0,99,-99.99,,,-99.99,,2014-01-25 07:52:00,
2014-01-25 03:22:00,20.0,20.0,-100.00,SSW,205,16.0,24.0,99,-99.99,,,-99.99,,2014-01-25 08:22:00,
2014-01-25 03:52:00,20.0,20.0,-100.00,SW,220,13.0,23.0,99,-99.99,,,-99.99,,2014-01-25 08:52:00,
2014-01-25 04:22:00,21.0,21.0,-100.00,SSW,205,17.0,27.0,99,-99.99,,,-99.99,,2014-01-25 09:22:00,
2014-01-25 04:53:00,21.0,21.0,-100.00,SW,215,20.0,26.0,99,-99.99,,,-99.99,,2014-01-25 09:53:00,
2014-01-25 05:22:00,21.0,21.0,-100.00,SSW,210,19.0,28.0,99,-99.99,,,-99.99,,2014-01-25 10:22:00,
2014-01-25 05:52:00,21.0,21.0,-100.00,SSW,205,19.0,24.0,99,-99.99,,,-99.99,,2014-01-25 10:52:00,
2014-01-25 06:23:00,22.0,22.0,-100.00,SW,215,18.0,25.0,99,-99.99,,,-99.99,,2014-01-25 11:23:00,
2014-01-25 06:52:00,22.0,22.0,-100.00,SW,215,16.0,27.0,99,-99.99,,,-99.99,,2014-01-25 11:52:00,
2014-01-25 07:22:00,22.0,22.0,-100.00,SW,215,19.0,27.0,99,-99.99,,,-99.99,,2014-01-25 12:22:00,
2014-01-25 07:52:00,23.0,23.0,-100.00,SSW,210,17.0,25.0,99,-99.99,,,-99.99,,2014-01-25 12:52:00,
2014-01-25 08:22:00,23.0,23.0,-100.00,SW,220,15.0,25.0,99,-99.99,,,-99.99,,2014-01-25 13:22:00,
2014-01-25 08:52:00,24.0,24.0,-100.00,SW,220,13.0,22.0,99,-99.99,,,-99.99,,2014-01-25 13:52:00,
2014-01-25 09:22:00,24.0,24.0,-100.00,SW,235,10.0,18.0,99,-99.99,,,-99.99,,2014-01-25 14:22:00,
2014-01-25 09:52:00,25.0,25.0,-100.00,WSW,245,9.0,14.0,99,-99.99,,,-99.99,,2014-01-25 14:52:00,
2014-01-25 10:22:00,26.0,26.0,-100.00,WSW,250,11.0,17.0,99,-99.99,,,-99.99,,2014-01-25 15:22:00,
2014-01-25 10:53:00,28.0,28.0,-100.00,WSW,240,8.0,15.0,99,-99.99,,,-99.99,,2014-01-25 15:53:00,
2014-01-25 11:23:00,29.0,29.0,-100.00,WSW,255,9.0,15.0,99,-99.99,,,-99.99,,2014-01-25 16:23:00,
2014-01-25 11:53:00,31.0,27.0,-100.00,West,280,12.0,18.0,87,-99.99,,,-99.99,,2014-01-25 16:53:00,
2014-01-25 12:22:00,27.0,24.0,-100.00,NW,310,20.0,30.0,89,-99.99,,,-99.99,,2014-01-25 17:22:00,
2014-01-25 12:52:00,26.0,26.0,-100.00,WNW,290,14.0,21.0,98,-99.99,,,-99.99,,2014-01-25 17:52:00,
2014-01-25 13:22:00,27.0,24.0,-100.00,WNW,300,19.0,34.0,89,-99.99,,,-99.99,,2014-01-25 18:22:00,
2014-01-25 13:52:00,24.0,20.0,-100.00,NW,325,13.0,21.0,83,-99.99,,,-99.99,,2014-01-25 18:52:00,
2014-01-25 14:22:00,26.0,19.0,-100.00,NW,320,11.0,21.0,75,-99.99,,,-99.99,,2014-01-25 19:22:00,
2014-01-25 14:52:00,22.0,18.0,-100.00,NW,320,10.0,27.0,81,-99.99,,,-99.99,,2014-01-25 19:52:00,
2014-01-25 15:22:00,23.0,14.0,-100.00,WNW,295,15.0,26.0,67,-99.99,,,-99.99,,2014-01-25 20:22:00,
2014-01-25 15:52:00,22.0,14.0,-100.00,West,275,17.0,25.0,69,-99.99,,,-99.99,,2014-01-25 20:52:00,
2014-01-25 16:22:00,20.0,12.0,-100.00,NW,315,16.0,27.0,71,-99.99,,,-99.99,,2014-01-25 21:22:00,
2014-01-25 16:54:00,20.0,11.0,-100.00,WNW,300,15.0,24.0,66,-99.99,,,-99.99,,2014-01-25 21:54:00,
2014-01-25 17:23:00,19.0,9.0,-100.00,WNW,295,14.0,20.0,65,-99.99,,,-99.99,,2014-01-25 22:23:00,
2014-01-25 17:53:00,17.0,6.0,-100.00,WNW,290,12.0,21.0,61,-99.99,,,-99.99,,2014-01-25 22:53:00,
2014-01-25 18:23:00,17.0,6.0,-100.00,WNW,300,10.0,21.0,61,-99.99,,,-99.99,,2014-01-25 23:23:00,
2014-01-25 18:52:00,16.0,6.0,-100.00,NW,310,10.0,21.0,64,-99.99,,,-99.99,,2014-01-25 23:52:00,
2014-01-25 19:22:00,15.0,5.0,-100.00,NW,305,10.0,17.0,63,-99.99,,,-99.99,,2014-01-26 00:22:00,
2014-01-25 19:52:00,15.0,5.0,-100.00,WNW,295,12.0,17.0,64,-99.99,,,-99.99,,2014-01-26 00:52:00,
2014-01-25 20:22:00,15.0,7.0,-100.00,West,275,11.0,19.0,70,-99.99,,,-99.99,,2014-01-26 01:22:00,
2014-01-25 20:52:00,14.0,9.0,-100.00,NW,315,7.0,14.0,79,-99.99,,,-99.99,,2014-01-26 01:52:00,
2014-01-25 21:22:00,13.0,11.0,-100.00,WNW,300,7.0,16.0,89,-99.99,,,-99.99,,2014-01-26 02:22:00,
2014-01-25 21:52:00,12.0,11.0,-100.00,NW,320,9.0,12.0,94,-99.99,,,-99.99,,2014-01-26 02:52:00,
2014-01-25 22:22:00,11.0,9.0,-100.00,NW,305,9.0,12.0,90,-99.99,,,-99.99,,2014-01-26 03:22:00,
2014-01-25 22:53:00,11.0,8.0,-100.00,NW,305,6.0,10.0,89,-99.99,,,-99.99,,2014-01-26 03:53:00,
2014-01-25 23:03:00,-999.0,-99.9,-100.00,NW,310,5.0,9.0,89,-99.99,,,-99.99,,2014-01-26 04:03:00,
2014-01-25 23:23:00,10.0,8.0,-100.00,WNW,290,4.0,7.0,91,-99.99,,,-99.99,,2014-01-26 04:23:00,
2014-01-25 23:53:00,10.0,8.0,-100.00,WSW,255,3.0,6.0,91,-99.99,,,-99.99,,2014-01-26 04:53:00,